Portada
METAR-TAF:

METAR-TAF

Aeroports :

Évreux, França

latitud: 49-01N, longitud: 001-13E, altitud: 141 m

Observació

L'informe es va fer fa 24 minuts, a les 05:00 UTC
Vent 4 kt del Nord
Temperatura 13°C
Humitat 72%
Pressió 1034 hPa
Visibilitat 10 km o més
sense núvols per sota de 1500 mi sense presència de cumulonimbus.

METAR: LFOE 270500Z AUTO 01004KT CAVOK 13/08 Q1034 NOSIG

Hora: 07:24 (05:24 UTC)

Pronòstic

L'informe es va fer fa 1 hora i 24 minuts, a les 04:00 UTC
Pronòstic vàlid del 27 a les 04 UTC al 28 a les 03 UTC
Vent 5 kt del Nord
Visibilitat 10 km o més
sense núvols per sota de 1500 mi sense presència de cumulonimbus.
Evolucionant progressivament
l' 27 a les 08 UTC al 27 a les 10 UTC
Vent 10 kt del Nord/Nord-Est amb ràfegues de 20 kt
Evolucionant progressivament
l' 27 a les 21 UTC al 27 a les 24 UTC
Vent 10 kt del Nord/Nord-Est

TAF: LFOE 270400Z 2704/2803 01005KT CAVOK BECMG 2708/2710 03010G20KT BECMG 2721/2724 03010KT

Observacions i pronòstics meteorològics de més de 4000 aeroports (METAR i TAF).

Les estacions disponibles són els punts grocs i vermells al mapa.

Posi el ratolí al punt desitjat per veure el nom de l'estació.

Feu clic per veure les observacions i els pronòstics meteorològics.

Per canviar el mapa: feu clic els botons verds amb una creu de color negre per apropar; al botó verd amb un guió per allunyar la imatge; o en les fletxes verdes per a mapes adjacents.


METAR-TAF: